Waco Regional Airport
KACT : now visible

Airfield :











YOU CAN JOIN US ON...

 
LOGIN :

Register | Disclaimer

   EN    FR    IT 

 









Legend :    VFR   Marginal VFR   IFR   Intensive IFR   Very Intensive IFR
Visi :
Ceiling :
>= 8 km
>= 3000ft
5 to 8 km
1000 to 3000 ft
1500m to 5 km
500 to 1000 ft
800 to 1500m
200 to 500 ft
< 800m
< 200 ft
Symbols :   Thunderstorms  Fog  Heavy snow  Heavy precipitations  Wind > 20 kt






- Airport Elevation : 516 ft
- IATA code : ACT


KACT - Waco Regional

CURRENT METAR :
  • 282151Z 27012G23KT 10SM OVC065 17/06 A2981 RMK AO2 SLP091 T01670061 $

EXPIRED METARs :
  • 282051Z 29016G25KT 10SM SCT033 OVC060 17/07 A2979 RMK AO2 PK WND 23028/2026 WSHFT 2023 SLP082 T01720072 55025
  • 282043Z 28017G23KT 10SM SCT033 OVC060 18/07 A2978 RMK AO2 PK WND 23028/2026 WSHFT 2023 T01780072
  • 281951Z 19013KT 10SM BKN015 BKN030 19/12 A2977 RMK AO2 SLP078 T01890117
  • 281855Z 17014KT 10SM OVC015 17/13 A2981 RMK AO2 T01670128

TAF KACT
Valid from the 28 at 21:00 until the 29 at 18:00 UTC


282050Z 2821/2918 28015G25KT P6SM BKN050
FM282300 31019G29KT P6SM OVC025
FM291300 33018G28KT P6SM OVC015
FM291700 34016G26KT P6SM BKN020



MET'MAP, your aeronautical weather chart ! - Copyright ORBIFLY December 2007 - Disclaimer

ORBIFLY MET'MAP TEAM :

Programming & Development : Alexandra Zaïnal
Concept & original design : Baudouin d'Aumeries
Assistance for programming : Marc-Olivier Méhu
Technical & hardware support : Manuel Goepfert

Contact : metmap@orbifly.com




SOURCES & CREDITS :

   NOAA       Earth
Advisory